sensor_id;sensor_type;location;lat;lon;timestamp;temperature;humidity
17483;DHT22;8858;52.308;20.994;2023-03-14T00:00:13;10.80;99.90
17483;DHT22;8858;52.308;20.994;2023-03-14T00:02:42;10.80;99.90
17483;DHT22;8858;52.308;20.994;2023-03-14T00:05:12;10.80;99.90
17483;DHT22;8858;52.308;20.994;2023-03-14T00:07:40;10.80;99.90
17483;DHT22;8858;52.308;20.994;2023-03-14T00:10:12;10.80;99.90
17483;DHT22;8858;52.308;20.994;2023-03-14T00:12:44;10.70;99.90
17483;DHT22;8858;52.308;20.994;2023-03-14T00:15:14;10.80;99.90
17483;DHT22;8858;52.308;20.994;2023-03-14T00:17:43;10.80;99.90
17483;DHT22;8858;52.308;20.994;2023-03-14T00:20:12;10.80;99.90
17483;DHT22;8858;52.308;20.994;2023-03-14T00:22:41;10.70;99.90
17483;DHT22;8858;52.308;20.994;2023-03-14T00:25:12;10.70;99.90
17483;DHT22;8858;52.308;20.994;2023-03-14T00:27:40;10.70;99.90
17483;DHT22;8858;52.308;20.994;2023-03-14T00:30:09;10.70;99.90
17483;DHT22;8858;52.308;20.994;2023-03-14T00:32:39;10.70;99.90
17483;DHT22;8858;52.308;20.994;2023-03-14T00:35:09;10.70;99.90
17483;DHT22;8858;52.308;20.994;2023-03-14T00:37:39;10.70;99.90
17483;DHT22;8858;52.308;20.994;2023-03-14T00:40:09;10.70;99.90
17483;DHT22;8858;52.308;20.994;2023-03-14T00:42:38;10.70;99.90
17483;DHT22;8858;52.308;20.994;2023-03-14T00:45:07;10.60;99.90
17483;DHT22;8858;52.308;20.994;2023-03-14T00:47:37;10.60;99.90
17483;DHT22;8858;52.308;20.994;2023-03-14T00:50:30;10.60;99.90
17483;DHT22;8858;52.308;20.994;2023-03-14T00:52:59;10.50;99.90
17483;DHT22;8858;52.308;20.994;2023-03-14T00:55:27;10.50;99.90
17483;DHT22;8858;52.308;20.994;2023-03-14T00:57:55;10.40;99.90
17483;DHT22;8858;52.308;20.994;2023-03-14T01:00:24;10.40;99.90
17483;DHT22;8858;52.308;20.994;2023-03-14T01:02:53;10.40;99.90
17483;DHT22;8858;52.308;20.994;2023-03-14T01:05:23;10.40;99.90
17483;DHT22;8858;52.308;20.994;2023-03-14T01:07:54;10.30;99.90
17483;DHT22;8858;52.308;20.994;2023-03-14T01:10:22;10.30;99.90
17483;DHT22;8858;52.308;20.994;2023-03-14T01:12:53;10.30;99.90
17483;DHT22;8858;52.308;20.994;2023-03-14T01:15:21;10.20;99.90
17483;DHT22;8858;52.308;20.994;2023-03-14T01:17:51;10.20;99.90
17483;DHT22;8858;52.308;20.994;2023-03-14T01:20:19;10.10;99.90
17483;DHT22;8858;52.308;20.994;2023-03-14T01:22:47;10.10;99.90
17483;DHT22;8858;52.308;20.994;2023-03-14T01:25:21;10.10;99.90
17483;DHT22;8858;52.308;20.994;2023-03-14T01:27:49;10.10;99.90
17483;DHT22;8858;52.308;20.994;2023-03-14T01:30:18;10.10;99.90
17483;DHT22;8858;52.308;20.994;2023-03-14T01:32:48;10.00;99.90
17483;DHT22;8858;52.308;20.994;2023-03-14T01:35:16;10.00;99.90
17483;DHT22;8858;52.308;20.994;2023-03-14T01:37:48;9.90;99.90
17483;DHT22;8858;52.308;20.994;2023-03-14T01:40:22;9.90;99.90
17483;DHT22;8858;52.308;20.994;2023-03-14T01:42:55;9.90;99.90
17483;DHT22;8858;52.308;20.994;2023-03-14T01:48:35;9.80;99.90
17483;DHT22;8858;52.308;20.994;2023-03-14T01:51:08;9.80;99.90
17483;DHT22;8858;52.308;20.994;2023-03-14T01:53:39;9.80;99.90
17483;DHT22;8858;52.308;20.994;2023-03-14T01:56:13;9.70;99.90
17483;DHT22;8858;52.308;20.994;2023-03-14T01:58:45;9.70;99.90
17483;DHT22;8858;52.308;20.994;2023-03-14T02:01:17;9.70;99.90
17483;DHT22;8858;52.308;20.994;2023-03-14T02:03:52;9.70;99.90
17483;DHT22;8858;52.308;20.994;2023-03-14T02:06:29;9.70;99.90
17483;DHT22;8858;52.308;20.994;2023-03-14T02:09:01;9.70;99.90
17483;DHT22;8858;52.308;20.994;2023-03-14T02:11:36;9.70;99.90
17483;DHT22;8858;52.308;20.994;2023-03-14T02:14:17;9.60;99.90
17483;DHT22;8858;52.308;20.994;2023-03-14T02:17:07;9.60;99.90
17483;DHT22;8858;52.308;20.994;2023-03-14T02:20:26;9.60;99.90
17483;DHT22;8858;52.308;20.994;2023-03-14T02:22:58;9.60;99.90
17483;DHT22;8858;52.308;20.994;2023-03-14T02:25:37;9.60;99.90
17483;DHT22;8858;52.308;20.994;2023-03-14T02:28:08;9.50;99.90
17483;DHT22;8858;52.308;20.994;2023-03-14T02:30:38;9.60;99.90
17483;DHT22;8858;52.308;20.994;2023-03-14T02:33:09;9.50;99.90
17483;DHT22;8858;52.308;20.994;2023-03-14T02:35:41;9.50;99.90
17483;DHT22;8858;52.308;20.994;2023-03-14T02:38:15;9.50;99.90
17483;DHT22;8858;52.308;20.994;2023-03-14T02:40:47;9.50;99.90
17483;DHT22;8858;52.308;20.994;2023-03-14T02:43:18;9.40;99.90
17483;DHT22;8858;52.308;20.994;2023-03-14T02:45:54;9.40;99.90
17483;DHT22;8858;52.308;20.994;2023-03-14T02:48:26;9.50;99.90
17483;DHT22;8858;52.308;20.994;2023-03-14T02:50:57;9.40;99.90
17483;DHT22;8858;52.308;20.994;2023-03-14T02:53:29;9.40;99.90
17483;DHT22;8858;52.308;20.994;2023-03-14T02:56:05;9.30;99.90
17483;DHT22;8858;52.308;20.994;2023-03-14T02:58:37;9.30;99.90
17483;DHT22;8858;52.308;20.994;2023-03-14T03:01:17;9.30;99.90
17483;DHT22;8858;52.308;20.994;2023-03-14T03:03:46;9.30;99.90
17483;DHT22;8858;52.308;20.994;2023-03-14T03:06:19;9.30;99.90
17483;DHT22;8858;52.308;20.994;2023-03-14T03:08:47;9.30;99.90
17483;DHT22;8858;52.308;20.994;2023-03-14T03:11:16;9.30;99.90
17483;DHT22;8858;52.308;20.994;2023-03-14T03:13:46;9.30;99.90
17483;DHT22;8858;52.308;20.994;2023-03-14T03:16:15;9.30;99.90
17483;DHT22;8858;52.308;20.994;2023-03-14T03:18:47;9.30;99.90
17483;DHT22;8858;52.308;20.994;2023-03-14T03:21:15;9.30;99.90
17483;DHT22;8858;52.308;20.994;2023-03-14T03:23:44;9.30;99.90
17483;DHT22;8858;52.308;20.994;2023-03-14T03:26:12;9.40;99.90
17483;DHT22;8858;52.308;20.994;2023-03-14T03:28:41;9.30;99.90
17483;DHT22;8858;52.308;20.994;2023-03-14T03:31:13;9.30;99.90
17483;DHT22;8858;52.308;20.994;2023-03-14T03:33:43;9.30;99.90
17483;DHT22;8858;52.308;20.994;2023-03-14T03:36:11;9.30;99.90
17483;DHT22;8858;52.308;20.994;2023-03-14T03:38:40;9.30;99.90
17483;DHT22;8858;52.308;20.994;2023-03-14T03:41:09;9.20;99.90
17483;DHT22;8858;52.308;20.994;2023-03-14T03:43:37;9.20;99.90
17483;DHT22;8858;52.308;20.994;2023-03-14T03:46:12;9.20;99.90
17483;DHT22;8858;52.308;20.994;2023-03-14T03:48:41;9.20;99.90
17483;DHT22;8858;52.308;20.994;2023-03-14T03:51:12;9.20;99.90
17483;DHT22;8858;52.308;20.994;2023-03-14T03:53:42;9.20;99.90
17483;DHT22;8858;52.308;20.994;2023-03-14T03:56:13;9.10;99.90
17483;DHT22;8858;52.308;20.994;2023-03-14T03:58:42;9.10;99.90
17483;DHT22;8858;52.308;20.994;2023-03-14T04:01:13;9.10;99.90
17483;DHT22;8858;52.308;20.994;2023-03-14T04:03:47;9.10;99.90
17483;DHT22;8858;52.308;20.994;2023-03-14T04:06:18;9.10;99.90
17483;DHT22;8858;52.308;20.994;2023-03-14T04:08:48;9.10;99.90
17483;DHT22;8858;52.308;20.994;2023-03-14T04:11:35;9.10;99.90
17483;DHT22;8858;52.308;20.994;2023-03-14T04:14:11;9.00;99.90
17483;DHT22;8858;52.308;20.994;2023-03-14T04:16:45;9.10;99.90
17483;DHT22;8858;52.308;20.994;2023-03-14T04:19:18;9.10;99.90
17483;DHT22;8858;52.308;20.994;2023-03-14T04:21:47;9.10;99.90
17483;DHT22;8858;52.308;20.994;2023-03-14T04:24:20;9.00;99.90
17483;DHT22;8858;52.308;20.994;2023-03-14T04:26:49;9.00;99.90
17483;DHT22;8858;52.308;20.994;2023-03-14T04:29:17;9.00;99.90
17483;DHT22;8858;52.308;20.994;2023-03-14T04:31:48;9.00;99.90
17483;DHT22;8858;52.308;20.994;2023-03-14T04:34:19;9.00;99.90
17483;DHT22;8858;52.308;20.994;2023-03-14T04:36:51;8.90;99.90
17483;DHT22;8858;52.308;20.994;2023-03-14T04:39:29;8.90;99.90
17483;DHT22;8858;52.308;20.994;2023-03-14T04:42:06;8.90;99.90
17483;DHT22;8858;52.308;20.994;2023-03-14T04:44:37;8.90;99.90
17483;DHT22;8858;52.308;20.994;2023-03-14T04:47:07;8.90;99.90
17483;DHT22;8858;52.308;20.994;2023-03-14T04:49:37;8.90;99.90
17483;DHT22;8858;52.308;20.994;2023-03-14T04:52:12;8.90;99.90
17483;DHT22;8858;52.308;20.994;2023-03-14T04:54:41;8.90;99.90
17483;DHT22;8858;52.308;20.994;2023-03-14T04:57:09;8.90;99.90
17483;DHT22;8858;52.308;20.994;2023-03-14T04:59:38;8.90;99.90
17483;DHT22;8858;52.308;20.994;2023-03-14T05:02:23;8.90;99.90
17483;DHT22;8858;52.308;20.994;2023-03-14T05:05:01;8.90;99.90
17483;DHT22;8858;52.308;20.994;2023-03-14T05:07:50;8.90;99.90
17483;DHT22;8858;52.308;20.994;2023-03-14T05:10:55;9.00;99.90
17483;DHT22;8858;52.308;20.994;2023-03-14T05:13:36;9.00;99.90
17483;DHT22;8858;52.308;20.994;2023-03-14T05:16:25;9.10;99.90
17483;DHT22;8858;52.308;20.994;2023-03-14T05:19:10;9.10;99.90
17483;DHT22;8858;52.308;20.994;2023-03-14T05:21:57;9.10;99.90
17483;DHT22;8858;52.308;20.994;2023-03-14T05:24:46;9.10;99.90
17483;DHT22;8858;52.308;20.994;2023-03-14T05:27:37;9.20;99.90
17483;DHT22;8858;52.308;20.994;2023-03-14T05:30:27;9.20;99.90
17483;DHT22;8858;52.308;20.994;2023-03-14T05:33:10;9.20;99.90
17483;DHT22;8858;52.308;20.994;2023-03-14T05:35:52;9.30;99.90
17483;DHT22;8858;52.308;20.994;2023-03-14T05:38:50;9.30;99.90
17483;DHT22;8858;52.308;20.994;2023-03-14T05:41:36;9.40;99.90
17483;DHT22;8858;52.308;20.994;2023-03-14T05:44:23;9.40;99.90
17483;DHT22;8858;52.308;20.994;2023-03-14T05:46:57;9.40;99.90
17483;DHT22;8858;52.308;20.994;2023-03-14T05:49:34;9.40;99.90
17483;DHT22;8858;52.308;20.994;2023-03-14T05:52:32;9.40;99.90
17483;DHT22;8858;52.308;20.994;2023-03-14T05:55:19;9.40;99.90
17483;DHT22;8858;52.308;20.994;2023-03-14T05:58:11;9.50;99.90
17483;DHT22;8858;52.308;20.994;2023-03-14T06:01:03;9.60;99.90
17483;DHT22;8858;52.308;20.994;2023-03-14T06:03:54;9.60;99.90
17483;DHT22;8858;52.308;20.994;2023-03-14T06:06:22;9.60;99.90
17483;DHT22;8858;52.308;20.994;2023-03-14T06:08:52;9.70;99.90
17483;DHT22;8858;52.308;20.994;2023-03-14T06:11:20;9.80;99.90
17483;DHT22;8858;52.308;20.994;2023-03-14T06:13:50;9.90;99.90
17483;DHT22;8858;52.308;20.994;2023-03-14T06:16:19;9.90;99.90
17483;DHT22;8858;52.308;20.994;2023-03-14T06:18:47;10.00;99.90
17483;DHT22;8858;52.308;20.994;2023-03-14T06:21:18;10.00;99.90
17483;DHT22;8858;52.308;20.994;2023-03-14T06:23:49;10.00;99.90
17483;DHT22;8858;52.308;20.994;2023-03-14T06:26:20;10.00;99.90
17483;DHT22;8858;52.308;20.994;2023-03-14T06:28:49;10.00;99.90
17483;DHT22;8858;52.308;20.994;2023-03-14T06:31:19;9.90;99.90
17483;DHT22;8858;52.308;20.994;2023-03-14T06:33:59;10.00;99.90
17483;DHT22;8858;52.308;20.994;2023-03-14T06:36:30;10.00;99.90
17483;DHT22;8858;52.308;20.994;2023-03-14T06:39:00;10.00;99.90
17483;DHT22;8858;52.308;20.994;2023-03-14T06:41:32;10.00;99.90
17483;DHT22;8858;52.308;20.994;2023-03-14T06:44:01;10.10;99.90
17483;DHT22;8858;52.308;20.994;2023-03-14T06:46:32;10.10;99.90
17483;DHT22;8858;52.308;20.994;2023-03-14T06:49:02;10.10;99.90
17483;DHT22;8858;52.308;20.994;2023-03-14T06:51:32;10.30;99.90
17483;DHT22;8858;52.308;20.994;2023-03-14T06:54:03;10.30;99.90
17483;DHT22;8858;52.308;20.994;2023-03-14T06:56:36;10.40;99.90
17483;DHT22;8858;52.308;20.994;2023-03-14T06:59:04;10.50;99.90
17483;DHT22;8858;52.308;20.994;2023-03-14T07:01:33;10.60;99.90
17483;DHT22;8858;52.308;20.994;2023-03-14T07:04:09;10.80;99.90
17483;DHT22;8858;52.308;20.994;2023-03-14T07:06:43;10.80;99.90
17483;DHT22;8858;52.308;20.994;2023-03-14T07:09:17;10.90;99.90
17483;DHT22;8858;52.308;20.994;2023-03-14T07:11:55;11.00;99.90
17483;DHT22;8858;52.308;20.994;2023-03-14T07:14:24;11.10;99.90
17483;DHT22;8858;52.308;20.994;2023-03-14T07:16:53;11.10;99.90
17483;DHT22;8858;52.308;20.994;2023-03-14T07:19:22;11.20;99.90
17483;DHT22;8858;52.308;20.994;2023-03-14T07:21:51;11.20;99.90
17483;DHT22;8858;52.308;20.994;2023-03-14T07:24:23;11.30;99.90
17483;DHT22;8858;52.308;20.994;2023-03-14T07:26:55;11.30;99.90
17483;DHT22;8858;52.308;20.994;2023-03-14T07:29:24;11.30;99.90
17483;DHT22;8858;52.308;20.994;2023-03-14T07:31:52;11.40;99.90
17483;DHT22;8858;52.308;20.994;2023-03-14T07:34:21;11.40;99.90
17483;DHT22;8858;52.308;20.994;2023-03-14T07:36:50;11.40;99.90
17483;DHT22;8858;52.308;20.994;2023-03-14T07:39:21;11.40;99.90
17483;DHT22;8858;52.308;20.994;2023-03-14T07:42:11;11.50;99.90
17483;DHT22;8858;52.308;20.994;2023-03-14T07:44:42;11.60;99.90
17483;DHT22;8858;52.308;20.994;2023-03-14T07:47:10;11.70;99.90
17483;DHT22;8858;52.308;20.994;2023-03-14T07:49:39;11.80;99.90
17483;DHT22;8858;52.308;20.994;2023-03-14T07:52:07;11.90;99.90
17483;DHT22;8858;52.308;20.994;2023-03-14T07:54:36;12.00;99.90
17483;DHT22;8858;52.308;20.994;2023-03-14T07:57:04;12.00;99.90
17483;DHT22;8858;52.308;20.994;2023-03-14T07:59:34;12.10;99.90
17483;DHT22;8858;52.308;20.994;2023-03-14T08:02:02;12.20;99.90
17483;DHT22;8858;52.308;20.994;2023-03-14T08:04:33;12.20;99.90
17483;DHT22;8858;52.308;20.994;2023-03-14T08:07:01;12.30;99.90
17483;DHT22;8858;52.308;20.994;2023-03-14T08:09:30;12.40;99.90
17483;DHT22;8858;52.308;20.994;2023-03-14T08:11:58;12.50;99.90
17483;DHT22;8858;52.308;20.994;2023-03-14T08:14:27;12.50;99.90
17483;DHT22;8858;52.308;20.994;2023-03-14T08:16:57;12.60;99.90
17483;DHT22;8858;52.308;20.994;2023-03-14T08:19:27;12.70;99.90
17483;DHT22;8858;52.308;20.994;2023-03-14T08:21:55;12.70;99.90
17483;DHT22;8858;52.308;20.994;2023-03-14T08:24:24;12.80;99.90
17483;DHT22;8858;52.308;20.994;2023-03-14T08:26:53;12.90;99.90
17483;DHT22;8858;52.308;20.994;2023-03-14T08:29:21;13.00;99.90
17483;DHT22;8858;52.308;20.994;2023-03-14T08:31:50;13.10;99.90
17483;DHT22;8858;52.308;20.994;2023-03-14T08:34:24;13.10;99.90
17483;DHT22;8858;52.308;20.994;2023-03-14T08:36:52;13.10;99.90
17483;DHT22;8858;52.308;20.994;2023-03-14T08:39:23;13.20;99.90
17483;DHT22;8858;52.308;20.994;2023-03-14T08:41:52;13.20;99.90
17483;DHT22;8858;52.308;20.994;2023-03-14T08:44:24;13.30;99.90
17483;DHT22;8858;52.308;20.994;2023-03-14T08:46:52;13.30;99.90
17483;DHT22;8858;52.308;20.994;2023-03-14T08:49:22;13.30;99.90
17483;DHT22;8858;52.308;20.994;2023-03-14T08:51:52;13.50;99.90
17483;DHT22;8858;52.308;20.994;2023-03-14T08:54:20;13.50;99.90
17483;DHT22;8858;52.308;20.994;2023-03-14T08:56:51;13.60;99.90
17483;DHT22;8858;52.308;20.994;2023-03-14T08:59:19;13.70;99.90
17483;DHT22;8858;52.308;20.994;2023-03-14T09:01:47;13.80;99.90
17483;DHT22;8858;52.308;20.994;2023-03-14T09:04:17;13.90;99.90
17483;DHT22;8858;52.308;20.994;2023-03-14T09:06:45;14.00;99.90
17483;DHT22;8858;52.308;20.994;2023-03-14T09:09:15;14.10;99.90
17483;DHT22;8858;52.308;20.994;2023-03-14T09:11:45;14.10;99.90
17483;DHT22;8858;52.308;20.994;2023-03-14T09:14:13;14.10;99.90
17483;DHT22;8858;52.308;20.994;2023-03-14T09:16:42;14.20;99.90
17483;DHT22;8858;52.308;20.994;2023-03-14T09:19:11;14.30;99.90
17483;DHT22;8858;52.308;20.994;2023-03-14T09:21:39;14.30;99.90
17483;DHT22;8858;52.308;20.994;2023-03-14T09:24:11;14.30;99.90
17483;DHT22;8858;52.308;20.994;2023-03-14T09:26:42;14.40;99.90
17483;DHT22;8858;52.308;20.994;2023-03-14T09:29:10;14.40;99.90
17483;DHT22;8858;52.308;20.994;2023-03-14T09:31:40;14.50;99.90
17483;DHT22;8858;52.308;20.994;2023-03-14T09:34:08;14.70;99.90
17483;DHT22;8858;52.308;20.994;2023-03-14T09:36:39;14.70;99.90
17483;DHT22;8858;52.308;20.994;2023-03-14T09:39:08;14.70;99.90
17483;DHT22;8858;52.308;20.994;2023-03-14T09:41:40;14.80;99.90
17483;DHT22;8858;52.308;20.994;2023-03-14T09:44:14;14.90;99.90
17483;DHT22;8858;52.308;20.994;2023-03-14T09:46:47;14.90;99.90
17483;DHT22;8858;52.308;20.994;2023-03-14T09:49:20;15.00;99.90
17483;DHT22;8858;52.308;20.994;2023-03-14T09:51:54;14.90;99.90
17483;DHT22;8858;52.308;20.994;2023-03-14T09:54:30;15.00;99.90
17483;DHT22;8858;52.308;20.994;2023-03-14T09:57:03;15.00;99.90
17483;DHT22;8858;52.308;20.994;2023-03-14T09:59:36;15.00;99.90
17483;DHT22;8858;52.308;20.994;2023-03-14T10:02:17;15.00;99.90
17483;DHT22;8858;52.308;20.994;2023-03-14T10:04:48;15.10;99.90
17483;DHT22;8858;52.308;20.994;2023-03-14T10:07:20;15.00;99.90
17483;DHT22;8858;52.308;20.994;2023-03-14T10:09:50;15.00;99.90
17483;DHT22;8858;52.308;20.994;2023-03-14T10:12:19;15.00;99.90
17483;DHT22;8858;52.308;20.994;2023-03-14T10:15:04;15.00;99.90
17483;DHT22;8858;52.308;20.994;2023-03-14T10:17:39;15.10;99.90
17483;DHT22;8858;52.308;20.994;2023-03-14T10:20:26;15.10;99.90
17483;DHT22;8858;52.308;20.994;2023-03-14T10:23:00;15.10;99.90
17483;DHT22;8858;52.308;20.994;2023-03-14T10:25:30;15.20;99.90
17483;DHT22;8858;52.308;20.994;2023-03-14T10:28:01;15.30;99.90
17483;DHT22;8858;52.308;20.994;2023-03-14T10:30:37;15.30;99.90
17483;DHT22;8858;52.308;20.994;2023-03-14T10:33:20;15.30;99.90
17483;DHT22;8858;52.308;20.994;2023-03-14T10:35:54;15.30;99.90
17483;DHT22;8858;52.308;20.994;2023-03-14T10:38:26;15.30;99.90
17483;DHT22;8858;52.308;20.994;2023-03-14T10:40:59;15.30;99.90
17483;DHT22;8858;52.308;20.994;2023-03-14T10:43:31;15.30;99.90
17483;DHT22;8858;52.308;20.994;2023-03-14T10:46:08;15.30;99.90
17483;DHT22;8858;52.308;20.994;2023-03-14T10:48:57;15.30;99.90
17483;DHT22;8858;52.308;20.994;2023-03-14T10:51:29;15.30;99.90
17483;DHT22;8858;52.308;20.994;2023-03-14T10:54:00;15.40;99.90
17483;DHT22;8858;52.308;20.994;2023-03-14T10:56:34;15.50;99.90
17483;DHT22;8858;52.308;20.994;2023-03-14T10:59:07;15.50;99.90
17483;DHT22;8858;52.308;20.994;2023-03-14T11:01:44;15.50;99.90
17483;DHT22;8858;52.308;20.994;2023-03-14T11:04:29;15.50;99.90
17483;DHT22;8858;52.308;20.994;2023-03-14T11:07:08;15.50;99.90
17483;DHT22;8858;52.308;20.994;2023-03-14T11:09:43;15.50;99.90
17483;DHT22;8858;52.308;20.994;2023-03-14T11:12:34;15.50;99.90
17483;DHT22;8858;52.308;20.994;2023-03-14T11:15:15;15.50;99.90
17483;DHT22;8858;52.308;20.994;2023-03-14T11:17:54;15.50;99.90
17483;DHT22;8858;52.308;20.994;2023-03-14T11:20:35;15.40;99.90
17483;DHT22;8858;52.308;20.994;2023-03-14T11:23:12;15.40;99.90
17483;DHT22;8858;52.308;20.994;2023-03-14T11:25:47;15.40;99.90
17483;DHT22;8858;52.308;20.994;2023-03-14T11:28:19;15.30;99.90
17483;DHT22;8858;52.308;20.994;2023-03-14T11:31:18;15.40;99.90
17483;DHT22;8858;52.308;20.994;2023-03-14T11:33:56;15.30;99.90
17483;DHT22;8858;52.308;20.994;2023-03-14T11:36:33;15.10;99.90
17483;DHT22;8858;52.308;20.994;2023-03-14T11:39:12;15.00;99.90
17483;DHT22;8858;52.308;20.994;2023-03-14T11:41:44;14.90;99.90
17483;DHT22;8858;52.308;20.994;2023-03-14T11:44:19;14.90;99.90
17483;DHT22;8858;52.308;20.994;2023-03-14T11:46:50;14.90;99.90
17483;DHT22;8858;52.308;20.994;2023-03-14T11:49:30;14.90;99.90
17483;DHT22;8858;52.308;20.994;2023-03-14T11:52:03;14.90;99.90
17483;DHT22;8858;52.308;20.994;2023-03-14T11:54:39;14.90;99.90
17483;DHT22;8858;52.308;20.994;2023-03-14T11:57:12;14.90;99.90
17483;DHT22;8858;52.308;20.994;2023-03-14T11:59:47;14.80;99.90
17483;DHT22;8858;52.308;20.994;2023-03-14T12:02:24;14.80;99.90
17483;DHT22;8858;52.308;20.994;2023-03-14T12:05:25;14.80;99.90
17483;DHT22;8858;52.308;20.994;2023-03-14T12:08:33;14.70;99.90
17483;DHT22;8858;52.308;20.994;2023-03-14T12:11:10;14.70;99.90
17483;DHT22;8858;52.308;20.994;2023-03-14T12:13:41;14.80;99.90
17483;DHT22;8858;52.308;20.994;2023-03-14T12:16:37;14.90;99.90
17483;DHT22;8858;52.308;20.994;2023-03-14T12:19:21;14.90;99.90
17483;DHT22;8858;52.308;20.994;2023-03-14T12:21:57;15.00;99.90
17483;DHT22;8858;52.308;20.994;2023-03-14T12:24:29;15.10;99.90
17483;DHT22;8858;52.308;20.994;2023-03-14T12:27:00;15.10;99.90
17483;DHT22;8858;52.308;20.994;2023-03-14T12:29:30;15.10;99.90
17483;DHT22;8858;52.308;20.994;2023-03-14T12:32:12;15.10;99.90
17483;DHT22;8858;52.308;20.994;2023-03-14T12:34:52;15.00;99.90
17483;DHT22;8858;52.308;20.994;2023-03-14T12:37:28;15.00;99.90
17483;DHT22;8858;52.308;20.994;2023-03-14T12:40:14;15.00;99.90
17483;DHT22;8858;52.308;20.994;2023-03-14T12:42:57;14.90;99.90
17483;DHT22;8858;52.308;20.994;2023-03-14T12:45:28;14.80;99.90
17483;DHT22;8858;52.308;20.994;2023-03-14T12:48:11;14.80;99.90
17483;DHT22;8858;52.308;20.994;2023-03-14T12:50:45;14.70;99.90
17483;DHT22;8858;52.308;20.994;2023-03-14T12:53:50;14.60;99.90
17483;DHT22;8858;52.308;20.994;2023-03-14T12:56:36;14.40;99.90
17483;DHT22;8858;52.308;20.994;2023-03-14T12:59:18;14.40;99.90
17483;DHT22;8858;52.308;20.994;2023-03-14T13:01:55;14.30;99.90
17483;DHT22;8858;52.308;20.994;2023-03-14T13:04:29;14.30;99.90
17483;DHT22;8858;52.308;20.994;2023-03-14T13:07:12;14.10;99.90
17483;DHT22;8858;52.308;20.994;2023-03-14T13:09:57;14.00;99.90
17483;DHT22;8858;52.308;20.994;2023-03-14T13:12:31;13.90;99.90
17483;DHT22;8858;52.308;20.994;2023-03-14T13:15:27;13.70;99.90
17483;DHT22;8858;52.308;20.994;2023-03-14T13:18:02;13.50;99.90
17483;DHT22;8858;52.308;20.994;2023-03-14T13:20:33;13.30;99.90
17483;DHT22;8858;52.308;20.994;2023-03-14T13:23:02;13.20;99.90
17483;DHT22;8858;52.308;20.994;2023-03-14T13:25:35;13.00;99.90
17483;DHT22;8858;52.308;20.994;2023-03-14T13:28:03;13.00;99.90
17483;DHT22;8858;52.308;20.994;2023-03-14T13:30:39;12.90;99.90
17483;DHT22;8858;52.308;20.994;2023-03-14T13:33:13;12.90;99.90
17483;DHT22;8858;52.308;20.994;2023-03-14T13:35:45;12.80;99.90
17483;DHT22;8858;52.308;20.994;2023-03-14T13:38:17;12.70;99.90
17483;DHT22;8858;52.308;20.994;2023-03-14T13:40:49;12.60;99.90
17483;DHT22;8858;52.308;20.994;2023-03-14T13:43:20;12.60;99.90
17483;DHT22;8858;52.308;20.994;2023-03-14T13:45:51;12.60;99.90
17483;DHT22;8858;52.308;20.994;2023-03-14T13:48:21;12.50;99.90
17483;DHT22;8858;52.308;20.994;2023-03-14T13:50:52;12.50;99.90
17483;DHT22;8858;52.308;20.994;2023-03-14T13:53:21;12.50;99.90
17483;DHT22;8858;52.308;20.994;2023-03-14T13:55:52;12.40;99.90
17483;DHT22;8858;52.308;20.994;2023-03-14T13:58:26;12.40;99.90
17483;DHT22;8858;52.308;20.994;2023-03-14T14:00:57;12.40;99.90
17483;DHT22;8858;52.308;20.994;2023-03-14T14:03:31;12.40;99.90
17483;DHT22;8858;52.308;20.994;2023-03-14T14:06:01;12.30;99.90
17483;DHT22;8858;52.308;20.994;2023-03-14T14:08:30;12.20;99.90
17483;DHT22;8858;52.308;20.994;2023-03-14T14:11:02;12.20;99.90
17483;DHT22;8858;52.308;20.994;2023-03-14T14:13:33;12.20;99.90
17483;DHT22;8858;52.308;20.994;2023-03-14T14:16:05;12.10;99.90
17483;DHT22;8858;52.308;20.994;2023-03-14T14:18:35;12.10;99.90
17483;DHT22;8858;52.308;20.994;2023-03-14T14:21:08;12.10;99.90
17483;DHT22;8858;52.308;20.994;2023-03-14T14:23:38;12.00;99.90
17483;DHT22;8858;52.308;20.994;2023-03-14T14:26:08;12.10;99.90
17483;DHT22;8858;52.308;20.994;2023-03-14T14:28:37;12.10;99.90
17483;DHT22;8858;52.308;20.994;2023-03-14T14:31:19;12.00;99.90
17483;DHT22;8858;52.308;20.994;2023-03-14T14:33:58;12.00;99.90
17483;DHT22;8858;52.308;20.994;2023-03-14T14:36:32;12.10;99.90
17483;DHT22;8858;52.308;20.994;2023-03-14T14:39:09;12.10;99.90
17483;DHT22;8858;52.308;20.994;2023-03-14T14:41:41;12.10;99.90
17483;DHT22;8858;52.308;20.994;2023-03-14T14:44:12;12.10;99.90
17483;DHT22;8858;52.308;20.994;2023-03-14T14:46:42;12.10;99.90
17483;DHT22;8858;52.308;20.994;2023-03-14T14:49:13;12.10;99.90
17483;DHT22;8858;52.308;20.994;2023-03-14T14:51:43;12.10;99.90
17483;DHT22;8858;52.308;20.994;2023-03-14T14:54:16;12.10;99.90
17483;DHT22;8858;52.308;20.994;2023-03-14T14:56:51;12.20;99.90
17483;DHT22;8858;52.308;20.994;2023-03-14T14:59:25;12.10;99.90
17483;DHT22;8858;52.308;20.994;2023-03-14T15:01:56;12.20;99.90
17483;DHT22;8858;52.308;20.994;2023-03-14T15:04:30;12.20;99.90
17483;DHT22;8858;52.308;20.994;2023-03-14T15:06:59;12.20;99.90
17483;DHT22;8858;52.308;20.994;2023-03-14T15:09:31;12.10;99.90
17483;DHT22;8858;52.308;20.994;2023-03-14T15:12:00;12.10;99.90
17483;DHT22;8858;52.308;20.994;2023-03-14T15:14:29;12.10;99.90
17483;DHT22;8858;52.308;20.994;2023-03-14T15:16:57;12.00;99.90
17483;DHT22;8858;52.308;20.994;2023-03-14T15:19:26;12.00;99.90
17483;DHT22;8858;52.308;20.994;2023-03-14T15:21:59;12.00;99.90
17483;DHT22;8858;52.308;20.994;2023-03-14T15:24:27;11.90;99.90
17483;DHT22;8858;52.308;20.994;2023-03-14T15:26:55;11.90;99.90
17483;DHT22;8858;52.308;20.994;2023-03-14T15:29:26;11.90;99.90
17483;DHT22;8858;52.308;20.994;2023-03-14T15:31:56;11.90;99.90
17483;DHT22;8858;52.308;20.994;2023-03-14T15:34:27;11.90;99.90
17483;DHT22;8858;52.308;20.994;2023-03-14T15:36:56;11.90;99.90
17483;DHT22;8858;52.308;20.994;2023-03-14T15:39:25;11.80;99.90
17483;DHT22;8858;52.308;20.994;2023-03-14T15:41:53;11.80;99.90
17483;DHT22;8858;52.308;20.994;2023-03-14T15:44:21;11.80;99.90
17483;DHT22;8858;52.308;20.994;2023-03-14T15:46:51;11.90;99.90
17483;DHT22;8858;52.308;20.994;2023-03-14T15:49:19;11.80;99.90
17483;DHT22;8858;52.308;20.994;2023-03-14T15:51:48;11.80;99.90
17483;DHT22;8858;52.308;20.994;2023-03-14T15:54:19;11.80;99.90
17483;DHT22;8858;52.308;20.994;2023-03-14T15:56:49;11.70;99.90
17483;DHT22;8858;52.308;20.994;2023-03-14T15:59:23;11.70;99.90
17483;DHT22;8858;52.308;20.994;2023-03-14T16:01:53;11.70;99.90
17483;DHT22;8858;52.308;20.994;2023-03-14T16:04:22;11.70;99.90
17483;DHT22;8858;52.308;20.994;2023-03-14T16:06:51;11.70;99.90
17483;DHT22;8858;52.308;20.994;2023-03-14T16:09:19;11.70;99.90
17483;DHT22;8858;52.308;20.994;2023-03-14T16:11:51;11.70;99.90
17483;DHT22;8858;52.308;20.994;2023-03-14T16:14:19;11.70;99.90
17483;DHT22;8858;52.308;20.994;2023-03-14T16:16:48;11.70;99.90